Time;durP1;ratioP1;P1;durP2;ratioP2;P2;SDS_P1;SDS_P2;PMS_P1;PMS_P2;Temp;Humidity;BMP_temperature;BMP_pressure;BME280_temperature;BME280_humidity;BME280_pressure;Samples;Min_cycle;Max_cycle;Signal;HPM_P1;HPM_P2
2022/09/05 00:06:52;;;;;;;5.10;2.30;;;;;;;11.25;72.82;101644.52;654811;1277;138903;-82
2022/09/05 00:22:51;;;;;;;7.00;2.90;;;;;;;11.08;74.41;101645.91;655060;1277;138377;-81
2022/09/05 00:38:32;;;;;;;3.30;1.80;;;;;;;10.82;74.35;101642.41;655891;1277;139682;-81
2022/09/05 00:54:16;;;;;;;3.50;2.10;;;;;;;10.66;75.60;101639.81;654881;1277;138969;-81
2022/09/05 01:10:02;;;;;;;8.40;3.50;;;;;;;10.57;76.55;101635.86;655804;1277;138360;-81
2022/09/05 01:26:00;;;;;;;7.10;2.50;;;;;;;10.41;77.39;101628.32;654856;1279;139471;-81
2022/09/05 01:41:33;;;;;;;6.80;2.80;;;;;;;10.22;77.74;101634.05;656625;1278;138568;-81
2022/09/05 01:57:17;;;;;;;6.30;3.00;;;;;;;10.05;78.96;101637.63;655319;1277;138964;-81
2022/09/05 02:12:56;;;;;;;7.70;3.30;;;;;;;9.92;79.57;101641.04;655045;1277;138865;-81
2022/09/05 02:28:59;;;;;;;7.50;3.40;;;;;;;9.81;80.33;101650.45;655841;1277;139392;-82
2022/09/05 02:44:32;;;;;;;12.00;5.40;;;;;;;9.66;80.92;101667.85;657104;1277;139597;-82
2022/09/05 03:00:20;;;;;;;7.40;4.00;;;;;;;9.54;81.49;101664.94;656496;1277;138880;-81
2022/09/05 03:16:06;;;;;;;6.00;3.00;;;;;;;9.56;82.18;101672.45;656848;1277;139630;-80
2022/09/05 03:31:42;;;;;;;10.60;4.30;;;;;;;9.46;82.67;101673.75;658320;1277;138981;-80
2022/09/05 03:47:32;;;;;;;6.00;4.10;;;;;;;9.36;83.62;101671.08;661728;1277;139641;-81
2022/09/05 04:03:17;;;;;;;7.80;4.10;;;;;;;9.28;83.17;101679.05;657718;1277;138283;-81
2022/09/05 04:19:21;;;;;;;7.10;4.10;;;;;;;9.16;83.79;101684.98;655200;1278;138447;-83
2022/09/05 04:34:55;;;;;;;7.50;4.10;;;;;;;9.12;84.20;101689.12;656342;1277;138515;-81
2022/09/05 04:50:21;;;;;;;59.80;34.00;;;;;;;9.25;84.47;101700.55;655384;1277;139021;-83
2022/09/05 05:05:46;;;;;;;36.10;22.50;;;;;;;9.41;84.76;101705.14;656240;1277;138650;-84
2022/09/05 05:21:30;;;;;;;6.80;4.70;;;;;;;9.81;85.54;101717.27;655545;1277;139980;-81
2022/09/05 05:37:03;;;;;;;9.70;5.10;;;;;;;10.25;86.83;101728.66;654982;1277;139521;-81
2022/09/05 05:53:02;;;;;;;6.10;3.80;;;;;;;11.03;87.70;101730.29;655151;1277;139068;-82
2022/09/05 06:08:50;;;;;;;8.70;5.60;;;;;;;11.88;87.68;101742.86;658124;1277;138468;-84
2022/09/05 06:24:34;;;;;;;9.70;5.40;;;;;;;13.04;87.29;101744.77;657329;1277;140515;-83
2022/09/05 06:40:28;;;;;;;12.50;5.60;;;;;;;14.07;85.62;101746.56;657406;1278;138913;-82
2022/09/05 06:56:21;;;;;;;14.30;4.40;;;;;;;15.41;83.91;101753.20;657218;1277;139391;-83
2022/09/05 07:12:16;;;;;;;5.80;3.10;;;;;;;16.98;82.23;101763.87;656536;1277;140543;-83
2022/09/05 07:27:55;;;;;;;5.60;3.00;;;;;;;18.71;79.77;101772.27;658627;1279;138989;-84
2022/09/05 07:43:39;;;;;;;3.50;1.50;;;;;;;20.06;74.92;101777.13;657809;1278;139869;-84
2022/09/05 07:59:02;;;;;;;11.90;2.50;;;;;;;21.04;68.93;101779.36;655489;1279;139999;-84
2022/09/05 08:14:43;;;;;;;3.30;1.60;;;;;;;21.89;65.19;101782.27;656222;1277;140403;-86
2022/09/05 08:30:09;;;;;;;3.40;1.50;;;;;;;22.17;59.04;101784.27;656856;1278;139629;-84
2022/09/05 08:45:57;;;;;;;3.00;0.60;;;;;;;22.95;58.52;101779.02;657213;1277;140147;-84
2022/09/05 09:01:56;;;;;;;4.00;1.10;;;;;;;23.90;55.33;101767.75;657275;1277;139837;-83
2022/09/05 09:17:42;;;;;;;6.10;0.90;;;;;;;24.54;54.10;101755.48;658048;1277;140012;-84
2022/09/05 09:33:06;;;;;;;1.60;1.10;;;;;;;25.10;52.50;101747.18;657671;1277;138289;-85
2022/09/05 09:48:33;;;;;;;1.30;0.60;;;;;;;25.24;51.66;101738.80;657789;1277;138642;-86
2022/09/05 10:04:18;;;;;;;2.00;0.80;;;;;;;26.01;50.86;101731.54;657069;1277;139844;-86
2022/09/05 10:20:05;;;;;;;3.10;0.50;;;;;;;26.51;48.70;101733.32;660934;1278;139899;-86
2022/09/05 10:35:34;;;;;;;0.70;0.60;;;;;;;26.92;47.08;101725.49;657792;1277;138696;-84
2022/09/05 10:51:16;;;;;;;4.40;1.40;;;;;;;27.17;46.16;101713.52;659013;1277;139153;-84
2022/09/05 11:07:13;;;;;;;2.20;0.80;;;;;;;27.78;45.80;101703.50;658359;1279;139427;-84
2022/09/05 11:22:37;;;;;;;4.60;1.00;;;;;;;28.28;44.58;101696.76;658437;1279;138186;-85
2022/09/05 11:38:08;;;;;;;6.40;1.90;;;;;;;26.70;45.11;101696.65;654336;1278;1518118;-83
2022/09/05 11:54:16;;;;;;;4.60;2.90;;;;;;;27.33;45.30;101676.08;656034;1277;138470;-84
2022/09/05 12:09:46;;;;;;;2.30;0.80;;;;;;;27.21;44.29;101667.12;657140;1278;138411;-84
2022/09/05 12:25:35;;;;;;;2.90;0.90;;;;;;;27.64;44.52;101656.89;656277;1278;140162;-82
2022/09/05 12:41:22;;;;;;;0.60;0.40;;;;;;;27.74;44.33;101639.98;657883;1278;139577;-84
2022/09/05 12:57:26;;;;;;;1.70;1.30;;;;;;;27.61;43.62;101633.83;662178;1277;138083;-82
2022/09/05 13:13:25;;;;;;;2.80;0.70;;;;;;;28.07;43.34;101617.00;657225;1279;138476;-85
2022/09/05 13:29:20;;;;;;;0.50;0.30;;;;;;;28.91;42.23;101608.53;661933;1277;137917;-83
2022/09/05 13:44:45;;;;;;;2.80;0.50;;;;;;;29.30;41.29;101602.13;659712;1278;139771;-83
2022/09/05 14:00:16;;;;;;;1.00;0.50;;;;;;;29.51;41.44;101603.04;658390;1278;140007;-83
2022/09/05 14:16:03;;;;;;;1.30;0.60;;;;;;;33.07;39.26;101597.82;657565;1279;138645;-82
2022/09/05 14:31:34;;;;;;;1.10;0.60;;;;;;;39.62;34.67;101591.69;657129;1277;139546;-83
2022/09/05 14:47:39;;;;;;;0.90;0.40;;;;;;;44.29;32.28;101582.52;657339;1277;140187;-82
2022/09/05 15:02:47;;;;;;;2.10;1.10;;;;;;;45.40;30.62;101568.40;657767;1277;140850;-82
2022/09/05 15:18:10;;;;;;;1.40;0.90;;;;;;;44.03;29.90;101561.20;658461;1277;140194;-82
2022/09/05 15:33:22;;;;;;;4.20;1.70;;;;;;;37.12;32.88;101536.90;658471;1277;138968;-80
2022/09/05 15:48:31;;;;;;;1.10;0.60;;;;;;;40.71;31.22;101536.45;657785;1277;139607;-82
2022/09/05 16:03:38;;;;;;;2.50;1.30;;;;;;;37.02;33.12;101520.64;657860;1278;138424;-83
2022/09/05 16:19:08;;;;;;;4.70;1.90;;;;;;;35.23;32.96;101508.92;657887;1277;140127;-82
2022/09/05 16:34:32;;;;;;;4.40;2.80;;;;;;;28.78;37.56;101491.41;665276;1277;139728;-81
2022/09/05 16:49:47;;;;;;;19.60;10.50;;;;;;;25.80;41.45;101491.40;655450;1277;139229;-82
2022/09/05 17:05:17;;;;;;;13.30;8.20;;;;;;;24.37;43.58;101491.20;655872;1277;140321;-81
2022/09/05 17:20:22;;;;;;;17.60;8.80;;;;;;;22.94;45.58;101496.46;656102;1277;138917;-81
2022/09/05 17:35:46;;;;;;;19.70;10.70;;;;;;;21.69;47.55;101504.42;655536;1277;139594;-82
2022/09/05 17:50:50;;;;;;;39.40;23.90;;;;;;;20.69;49.53;101513.17;655725;1277;138868;-81
2022/09/05 18:05:53;;;;;;;91.10;47.40;;;;;;;19.89;51.53;101525.69;659718;1277;139765;-83
2022/09/05 18:21:06;;;;;;;15.90;9.10;;;;;;;19.18;53.13;101528.25;659805;1277;139095;-83
2022/09/05 18:36:25;;;;;;;20.50;8.00;;;;;;;18.50;54.93;101537.49;664648;1277;139950;-83
2022/09/05 18:51:42;;;;;;;31.80;13.30;;;;;;;17.97;56.29;101539.75;658874;1277;138225;-83
2022/09/05 19:06:52;;;;;;;29.30;12.40;;;;;;;17.21;57.86;101544.65;659235;1277;140127;-84
2022/09/05 19:22:01;;;;;;;64.10;24.60;;;;;;;16.56;59.20;101547.23;658680;1277;139066;-84
2022/09/05 19:37:25;;;;;;;23.40;11.50;;;;;;;16.06;61.47;101548.00;659514;1278;140569;-81
2022/09/05 19:52:49;;;;;;;15.00;7.10;;;;;;;15.59;62.48;101540.36;659616;1277;139978;-82
2022/09/05 20:07:56;;;;;;;12.50;7.10;;;;;;;15.19;64.34;101538.78;665456;1277;139955;-82
2022/09/05 20:23:04;;;;;;;9.40;5.20;;;;;;;14.98;64.91;101546.74;657379;1277;140518;-82
2022/09/05 20:38:32;;;;;;;12.00;5.30;;;;;;;14.61;64.63;101547.92;656043;1277;140085;-81
2022/09/05 20:53:57;;;;;;;14.10;7.20;;;;;;;14.19;65.70;101555.13;654854;1277;139643;-81
2022/09/05 21:09:23;;;;;;;11.80;6.10;;;;;;;13.94;66.84;101549.42;655306;1275;139390;-84
2022/09/05 21:24:27;;;;;;;9.40;5.00;;;;;;;13.77;67.83;101553.84;655403;1277;139293;-81
2022/09/05 21:39:38;;;;;;;6.20;2.90;;;;;;;13.57;69.11;101550.02;655376;1277;139780;-82
2022/09/05 21:55:04;;;;;;;4.50;2.90;;;;;;;13.43;70.05;101543.41;655205;1277;139430;-82
2022/09/05 22:10:30;;;;;;;6.20;2.70;;;;;;;13.19;71.16;101539.92;655290;1277;138405;-82
2022/09/05 22:25:53;;;;;;;5.00;2.70;;;;;;;12.98;71.51;101533.23;655257;1277;140017;-83
2022/09/05 22:40:57;;;;;;;13.50;5.10;;;;;;;12.77;70.74;101530.06;656069;1277;139969;-82
2022/09/05 22:56:06;;;;;;;7.90;3.30;;;;;;;12.60;71.26;101534.00;655283;1277;140318;-83
2022/09/05 23:11:15;;;;;;;7.30;2.80;;;;;;;12.36;71.95;101531.22;655212;1276;139243;-83
2022/09/05 23:26:18;;;;;;;3.50;2.20;;;;;;;12.18;72.49;101529.24;655088;1277;140360;-81
2022/09/05 23:41:21;;;;;;;4.80;2.30;;;;;;;11.99;73.88;101520.17;653508;1277;2004703;-83
2022/09/05 23:56:25;;;;;;;5.30;2.80;;;;;;;11.79;74.53;101511.98;655341;1277;140190;-83
